createdAt,value
2023-05-15T00:01:37.472Z,99619.22
2023-05-15T00:04:06.279Z,99622.16
2023-05-15T00:06:36.355Z,99619.75
2023-05-15T00:09:05.108Z,99626.41
2023-05-15T00:11:33.474Z,99620.53
2023-05-15T00:14:01.808Z,99625.59
2023-05-15T00:16:30.609Z,99625.59
2023-05-15T00:18:59.145Z,99630.94
2023-05-15T00:21:27.609Z,99620.00
2023-05-15T00:23:58.463Z,99619.47
2023-05-15T00:26:26.870Z,99613.09
2023-05-15T00:28:55.285Z,99609.06
2023-05-15T00:31:25.767Z,99617.34
2023-05-15T00:33:54.173Z,99617.59
2023-05-15T00:36:24.325Z,99603.75
2023-05-15T00:38:53.922Z,99611.19
2023-05-15T00:41:24.555Z,99610.94
2023-05-15T00:43:53.284Z,99617.88
2023-05-15T00:46:22.785Z,99608.53
2023-05-15T00:48:52.116Z,99609.31
2023-05-15T00:51:20.506Z,99607.72
2023-05-15T00:53:49.088Z,99615.22
2023-05-15T00:56:18.985Z,99612.00
2023-05-15T00:58:50.198Z,99612.78
2023-05-15T01:01:20.092Z,99608.25
2023-05-15T01:03:48.494Z,99607.19
2023-05-15T01:06:17.080Z,99600.25
2023-05-15T01:08:48.162Z,99604.25
2023-05-15T01:11:18.445Z,99597.56
2023-05-15T01:13:48.939Z,99603.97
2023-05-15T01:16:17.723Z,99600.78
2023-05-15T01:18:46.384Z,99604.50
2023-05-15T01:22:02.086Z,99597.03
2023-05-15T01:25:02.719Z,99616.75
2023-05-15T01:27:36.964Z,99600.50
2023-05-15T01:30:14.126Z,99589.28
2023-05-15T01:32:49.814Z,99598.34
2023-05-15T01:35:25.302Z,99612.47
2023-05-15T01:38:15.202Z,99602.63
2023-05-15T01:40:45.331Z,99613.28
2023-05-15T01:43:20.455Z,99610.34
2023-05-15T01:45:48.790Z,99606.03
2023-05-15T01:48:18.839Z,99614.03
2023-05-15T01:50:47.992Z,99609.47
2023-05-15T01:53:17.879Z,99607.09
2023-05-15T01:55:47.368Z,99609.19
2023-05-15T01:58:17.618Z,99614.81
2023-05-15T02:00:46.956Z,99609.75
2023-05-15T02:03:16.371Z,99602.28
2023-05-15T02:05:44.929Z,99601.97
2023-05-15T02:08:17.494Z,99606.25
2023-05-15T02:10:46.292Z,99609.16
2023-05-15T02:13:17.782Z,99597.69
2023-05-15T02:15:46.432Z,99607.78
2023-05-15T02:18:15.775Z,99606.72
2023-05-15T02:20:44.318Z,99591.53
2023-05-15T02:23:12.792Z,99605.13
2023-05-15T02:25:51.654Z,99606.16
2023-05-15T02:28:30.072Z,99606.72
2023-05-15T02:31:07.393Z,99593.63
2023-05-15T02:33:46.097Z,99604.00
2023-05-15T02:36:21.719Z,99603.72
2023-05-15T02:38:54.941Z,99594.16
2023-05-15T02:41:24.258Z,99577.09
2023-05-15T02:43:56.376Z,99580.28
2023-05-15T02:46:26.490Z,99579.47
2023-05-15T02:48:55.906Z,99585.84
2023-05-15T02:51:24.418Z,99580.00
2023-05-15T02:53:53.789Z,99579.72
2023-05-15T02:56:22.339Z,99575.47
2023-05-15T02:58:50.727Z,99569.84
2023-05-15T03:01:20.580Z,99576.22
2023-05-15T03:03:49.159Z,99582.06
2023-05-15T03:06:18.720Z,99586.84
2023-05-15T03:08:47.114Z,99574.31
2023-05-15T03:11:15.513Z,99567.66
2023-05-15T03:13:43.865Z,99580.94
2023-05-15T03:16:12.310Z,99583.31
2023-05-15T03:18:42.529Z,99579.31
2023-05-15T03:21:10.897Z,99584.91
2023-05-15T03:23:39.281Z,99583.81
2023-05-15T03:26:07.602Z,99582.19
2023-05-15T03:28:36.043Z,99579.78
2023-05-15T03:31:04.989Z,99581.09
2023-05-15T03:33:34.148Z,99581.34
2023-05-15T03:36:04.057Z,99583.47
2023-05-15T03:38:32.377Z,99580.50
2023-05-15T03:41:02.753Z,99587.97
2023-05-15T03:43:33.913Z,99591.13
2023-05-15T03:46:02.478Z,99594.28
2023-05-15T03:48:30.885Z,99593.22
2023-05-15T03:50:59.286Z,99589.19
2023-05-15T03:53:29.137Z,99606.47
2023-05-15T03:55:58.348Z,99597.16
2023-05-15T03:58:27.542Z,99598.22
2023-05-15T04:00:55.949Z,99594.19
2023-05-15T04:03:24.617Z,99587.53
2023-05-15T04:05:53.228Z,99595.75
2023-05-15T04:08:21.684Z,99601.31
2023-05-15T04:10:52.209Z,99601.59
2023-05-15T04:13:20.582Z,99600.00
2023-05-15T04:15:48.965Z,99600.50
2023-05-15T04:18:17.311Z,99610.34
2023-05-15T04:20:45.871Z,99618.53
2023-05-15T04:23:14.202Z,99605.53
2023-05-15T04:25:46.587Z,99613.72
2023-05-15T04:28:17.002Z,99618.75
2023-05-15T04:30:46.047Z,99618.47
2023-05-15T04:33:14.568Z,99622.19
2023-05-15T04:35:43.251Z,99613.41
2023-05-15T04:38:11.835Z,99612.84
2023-05-15T04:40:40.126Z,99613.09
2023-05-15T04:43:08.488Z,99595.56
2023-05-15T04:45:38.339Z,99605.41
2023-05-15T04:48:07.391Z,99605.63
2023-05-15T04:50:36.853Z,99610.94
2023-05-15T04:53:05.558Z,99603.25
2023-05-15T04:55:33.903Z,99606.13
2023-05-15T04:58:02.253Z,99611.44
2023-05-15T05:00:31.103Z,99610.66
2023-05-15T05:03:00.824Z,99610.91
2023-05-15T05:05:29.181Z,99609.81
2023-05-15T05:07:57.543Z,99608.50
2023-05-15T05:10:25.865Z,99605.03
2023-05-15T05:12:54.225Z,99617.25
2023-05-15T05:15:22.669Z,99616.72
2023-05-15T05:17:51.406Z,99617.78
2023-05-15T05:20:21.334Z,99617.00
2023-05-15T05:22:49.647Z,99611.69
2023-05-15T05:25:18.250Z,99618.28
2023-05-15T05:27:46.592Z,99623.34
2023-05-15T05:30:15.341Z,99622.81
2023-05-15T05:32:43.757Z,99625.19
2023-05-15T05:35:12.116Z,99623.59
2023-05-15T05:37:41.834Z,99627.56
2023-05-15T05:40:11.748Z,99621.44
2023-05-15T05:42:40.118Z,99619.28
2023-05-15T05:45:09.733Z,99613.75
2023-05-15T05:47:38.148Z,99617.19
2023-05-15T05:50:08.743Z,99619.84
2023-05-15T05:52:37.195Z,99622.25
2023-05-15T05:55:08.038Z,99619.34
2023-05-15T05:57:36.456Z,99622.00
2023-05-15T06:00:09.764Z,99620.94
2023-05-15T06:02:39.227Z,99623.34
2023-05-15T06:05:08.874Z,99616.69
2023-05-15T06:07:37.305Z,99624.16
2023-05-15T06:10:09.692Z,99625.50
2023-05-15T06:12:38.119Z,99623.13
2023-05-15T06:15:08.382Z,99617.50
2023-05-15T06:17:36.769Z,99623.91
2023-05-15T06:20:07.450Z,99636.94
2023-05-15T06:22:36.712Z,99625.25
2023-05-15T06:25:11.335Z,99617.03
2023-05-15T06:27:39.663Z,99611.44
2023-05-15T06:30:09.811Z,99614.09
2023-05-15T06:32:38.213Z,99606.63
2023-05-15T06:35:07.992Z,99615.47
2023-05-15T06:37:37.954Z,99610.72
2023-05-15T06:40:09.737Z,99618.41
2023-05-15T06:42:38.125Z,99614.69
2023-05-15T06:45:08.258Z,99621.13
2023-05-15T06:47:36.602Z,99619.81
2023-05-15T06:50:06.985Z,99607.88
2023-05-15T06:52:35.286Z,99610.84
2023-05-15T06:55:03.676Z,99611.13
2023-05-15T06:57:34.891Z,99608.78
2023-05-15T07:00:03.334Z,99603.47
2023-05-15T07:02:31.716Z,99610.19
2023-05-15T07:05:00.113Z,99605.16
2023-05-15T07:07:28.532Z,99601.22
2023-05-15T07:09:56.857Z,99600.47
2023-05-15T07:12:25.222Z,99609.81
2023-05-15T07:14:54.954Z,99602.13
2023-05-15T07:17:23.483Z,99609.66
2023-05-15T07:19:51.944Z,99604.91
2023-05-15T07:22:20.902Z,99610.28
2023-05-15T07:24:49.283Z,99602.31
2023-05-15T07:27:17.603Z,99611.16
2023-05-15T07:29:45.984Z,99606.16
2023-05-15T07:32:15.646Z,99598.72
2023-05-15T07:34:44.073Z,99595.56
2023-05-15T07:37:12.803Z,99597.69
2023-05-15T07:39:41.928Z,99600.66
2023-05-15T07:42:10.593Z,99594.28
2023-05-15T07:44:38.926Z,99592.47
2023-05-15T07:47:07.548Z,99590.09
2023-05-15T07:49:37.256Z,99592.25
2023-05-15T07:52:06.185Z,99584.00
2023-05-15T07:54:34.511Z,99578.13
2023-05-15T07:57:03.381Z,99586.94
2023-05-15T07:59:32.055Z,99582.66
2023-05-15T08:02:00.477Z,99586.66
2023-05-15T08:04:29.025Z,99587.19
2023-05-15T08:06:58.872Z,99588.00
2023-05-15T08:09:27.206Z,99585.88
2023-05-15T08:11:57.499Z,99578.94
2023-05-15T08:14:26.038Z,99586.66
2023-05-15T08:16:54.434Z,99584.78
2023-05-15T08:19:23.889Z,99583.19
2023-05-15T08:21:52.335Z,99586.63
2023-05-15T08:24:22.009Z,99580.22
2023-05-15T08:26:50.348Z,99601.81
2023-05-15T08:29:18.715Z,99588.72
2023-05-15T08:31:47.288Z,99582.03
2023-05-15T08:34:15.726Z,99583.63
2023-05-15T08:36:44.266Z,99595.88
2023-05-15T08:39:13.074Z,99582.75
2023-05-15T08:41:51.252Z,99581.94
2023-05-15T08:44:20.470Z,99587.25
2023-05-15T08:46:50.137Z,99581.91
2023-05-15T08:49:37.482Z,99566.16
2023-05-15T08:52:06.780Z,99571.19
2023-05-15T08:54:35.974Z,99564.47
2023-05-15T08:57:07.193Z,99575.91
2023-05-15T08:59:35.730Z,99563.09
2023-05-15T09:02:04.353Z,99573.72
2023-05-15T09:04:32.801Z,99570.22
2023-05-15T09:07:02.670Z,99551.44
2023-05-15T09:09:33.898Z,99562.38
2023-05-15T09:12:05.346Z,99567.41
2023-05-15T09:14:33.722Z,99568.94
2023-05-15T09:17:02.378Z,99567.03
2023-05-15T09:19:31.737Z,99566.44
2023-05-15T09:22:17.808Z,99567.50
2023-05-15T09:24:48.258Z,99566.41
2023-05-15T09:27:18.395Z,99566.06
2023-05-15T09:29:47.178Z,99564.13
2023-05-15T09:32:16.868Z,99561.44
2023-05-15T09:34:46.385Z,99564.59
2023-05-15T09:37:30.240Z,99561.84
2023-05-15T09:40:10.804Z,99553.75
2023-05-15T09:42:40.590Z,99559.06
2023-05-15T09:45:19.070Z,99548.28
2023-05-15T09:47:47.964Z,99546.09
2023-05-15T09:50:23.981Z,99547.66
2023-05-15T09:52:52.789Z,99543.59
2023-05-15T09:55:23.000Z,99535.50
2023-05-15T09:58:11.107Z,99537.31
2023-05-15T10:00:48.484Z,99538.34
2023-05-15T10:03:20.629Z,99532.16
2023-05-15T10:05:49.377Z,99532.09
2023-05-15T10:08:28.065Z,99527.19
2023-05-15T10:11:00.880Z,99520.69
2023-05-15T10:13:35.645Z,99517.06
2023-05-15T10:16:05.365Z,99540.03
2023-05-15T10:18:37.341Z,99505.94
2023-05-15T10:21:06.565Z,99510.91
2023-05-15T10:23:37.892Z,99502.81
2023-05-15T10:26:17.257Z,99505.97
2023-05-15T10:28:48.382Z,99485.84
2023-05-15T10:31:17.246Z,99501.06
2023-05-15T10:33:46.363Z,99502.59
2023-05-15T10:36:16.424Z,99504.69
2023-05-15T10:38:45.979Z,99502.31
2023-05-15T10:41:18.424Z,99484.28
2023-05-15T10:43:50.174Z,99482.09
2023-05-15T10:46:18.693Z,99488.69
2023-05-15T10:48:47.127Z,99489.38
2023-05-15T10:51:18.094Z,99478.06
2023-05-15T10:53:47.189Z,99471.03
2023-05-15T10:56:17.622Z,99470.44
2023-05-15T10:58:49.723Z,99466.41
2023-05-15T11:01:29.400Z,99466.66
2023-05-15T11:04:13.192Z,99464.81
2023-05-15T11:06:44.051Z,99467.19
2023-05-15T11:09:35.716Z,99448.09
2023-05-15T11:12:06.604Z,99437.88
2023-05-15T11:14:38.242Z,99435.47
2023-05-15T11:17:09.414Z,99445.03
2023-05-15T11:19:58.350Z,99441.25
2023-05-15T11:22:33.503Z,99434.81
2023-05-15T11:25:04.149Z,99438.28
2023-05-15T11:27:35.601Z,99434.50
2023-05-15T11:30:11.576Z,99423.00
2023-05-15T11:32:56.992Z,99423.50
2023-05-15T11:35:29.048Z,99425.09
2023-05-15T11:37:59.865Z,99427.66
2023-05-15T11:40:30.984Z,99427.59
2023-05-15T11:43:18.957Z,99419.03
2023-05-15T11:45:51.591Z,99426.47
2023-05-15T11:48:21.620Z,99423.00
2023-05-15T11:50:50.940Z,99414.38
2023-05-15T11:53:20.832Z,99422.91
2023-05-15T11:55:49.399Z,99422.00
2023-05-15T11:58:21.206Z,99418.44
2023-05-15T12:00:52.842Z,99425.03
2023-05-15T12:03:25.185Z,99425.25
2023-05-15T12:05:59.516Z,99419.75
2023-05-15T12:08:33.279Z,99438.88
2023-05-15T12:11:02.933Z,99442.94
2023-05-15T12:13:32.336Z,99428.41
2023-05-15T12:16:03.432Z,99445.81
2023-05-15T12:18:33.138Z,99451.72
2023-05-15T12:21:01.774Z,99459.75
2023-05-15T12:23:33.685Z,99445.81
2023-05-15T12:26:04.020Z,99451.31
2023-05-15T12:28:36.682Z,99450.78
2023-05-15T12:31:06.960Z,99450.50
2023-05-15T12:33:35.640Z,99444.03
2023-05-15T12:36:04.518Z,99441.84
2023-05-15T12:38:34.976Z,99439.66
2023-05-15T12:41:03.580Z,99438.56
2023-05-15T12:43:33.345Z,99437.19
2023-05-15T12:46:01.900Z,99443.06
2023-05-15T12:48:34.936Z,99445.44
2023-05-15T12:51:08.137Z,99426.31
2023-05-15T12:53:39.712Z,99422.25
2023-05-15T12:56:09.807Z,99425.13
2023-05-15T12:58:39.439Z,99408.44
2023-05-15T13:01:08.166Z,99429.59
2023-05-15T13:03:38.706Z,99430.41
2023-05-15T13:06:08.335Z,99426.44
2023-05-15T13:08:42.704Z,99426.25
2023-05-15T13:11:15.153Z,99423.03
2023-05-15T13:13:48.692Z,99429.19
2023-05-15T13:16:22.421Z,99432.69
2023-05-15T13:18:52.761Z,99433.78
2023-05-15T13:21:21.584Z,99429.19
2023-05-15T13:23:50.252Z,99423.84
2023-05-15T13:26:18.986Z,99418.47
2023-05-15T13:28:47.478Z,99408.81
2023-05-15T13:31:16.029Z,99417.38
2023-05-15T13:33:44.720Z,99413.41
2023-05-15T13:39:00.887Z,99415.69
2023-05-15T13:41:29.459Z,99419.06
2023-05-15T13:43:57.898Z,99425.91
2023-05-15T13:46:26.660Z,99429.00
2023-05-15T13:48:55.255Z,99448.78
2023-05-15T13:51:25.165Z,99446.41
2023-05-15T13:53:53.686Z,99438.16
2023-05-15T13:56:22.419Z,99430.50
2023-05-15T13:58:50.898Z,99421.47
2023-05-15T14:01:19.614Z,99420.75
2023-05-15T14:03:48.476Z,99420.88
2023-05-15T14:06:17.010Z,99416.28
2023-05-15T14:08:46.992Z,99421.94
2023-05-15T14:11:15.820Z,99414.19
2023-05-15T14:13:44.268Z,99428.41
2023-05-15T14:16:12.960Z,99433.31
2023-05-15T14:18:41.486Z,99431.09
2023-05-15T14:21:10.002Z,99434.56
2023-05-15T14:23:38.424Z,99431.41
2023-05-15T14:26:08.459Z,99422.56
2023-05-15T14:28:36.833Z,99440.75
2023-05-15T14:31:05.650Z,99462.22
2023-05-15T14:33:34.208Z,99435.47
2023-05-15T14:36:04.641Z,99425.84
2023-05-15T14:38:33.688Z,99440.97
2023-05-15T14:41:02.296Z,99434.09
2023-05-15T14:43:32.097Z,99429.63
2023-05-15T14:46:00.655Z,99451.66
2023-05-15T14:48:30.130Z,99433.66
2023-05-15T14:50:59.288Z,99425.91
2023-05-15T14:53:28.061Z,99420.81
2023-05-15T14:55:58.473Z,99416.75
2023-05-15T14:58:27.054Z,99419.72
2023-05-15T15:00:56.742Z,99421.84
2023-05-15T15:03:27.895Z,99426.63
2023-05-15T15:05:57.504Z,99419.88
2023-05-15T15:08:26.870Z,99435.88
2023-05-15T15:10:59.438Z,99435.47
2023-05-15T15:13:30.084Z,99425.25
2023-05-15T15:16:01.607Z,99432.19
2023-05-15T15:18:30.469Z,99443.63
2023-05-15T15:20:59.052Z,99430.69
2023-05-15T15:23:27.565Z,99441.06
2023-05-15T15:25:55.931Z,99447.41
2023-05-15T15:28:24.709Z,99448.72
2023-05-15T15:30:53.297Z,99452.66
2023-05-15T15:33:23.329Z,99451.59
2023-05-15T15:35:51.945Z,99451.28
2023-05-15T15:38:20.604Z,99454.97
2023-05-15T15:40:49.288Z,99451.19
2023-05-15T15:43:17.764Z,99448.66
2023-05-15T15:45:46.519Z,99452.19
2023-05-15T15:48:15.043Z,99465.31
2023-05-15T15:50:44.919Z,99485.22
2023-05-15T15:53:13.561Z,99457.84
2023-05-15T15:55:42.031Z,99466.41
2023-05-15T15:58:10.480Z,99450.28
2023-05-15T16:00:39.271Z,99459.13
2023-05-15T16:03:08.065Z,99455.66
2023-05-15T16:05:36.881Z,99440.81
2023-05-15T16:08:06.983Z,99449.97
2023-05-15T16:10:35.710Z,99435.16
2023-05-15T16:13:07.341Z,99456.34
2023-05-15T16:15:35.784Z,99452.84
2023-05-15T16:18:04.501Z,99465.19
2023-05-15T16:20:35.113Z,99453.97
2023-05-15T16:23:03.930Z,99442.69
2023-05-15T16:25:33.745Z,99445.97
2023-05-15T16:28:02.404Z,99447.88
2023-05-15T16:30:47.496Z,99449.78
2023-05-15T16:33:18.626Z,99451.97
2023-05-15T16:35:48.445Z,99461.94
2023-05-15T16:38:18.059Z,99463.00
2023-05-15T16:40:48.221Z,99463.31
2023-05-15T16:43:16.891Z,99466.91
2023-05-15T16:45:45.603Z,99468.09
2023-05-15T16:48:14.375Z,99471.06
2023-05-15T16:50:43.071Z,99464.13
2023-05-15T16:53:12.295Z,99452.28
2023-05-15T16:55:41.168Z,99459.25
2023-05-15T16:58:11.237Z,99453.09
2023-05-15T17:00:39.988Z,99466.22
2023-05-15T17:03:09.151Z,99460.66
2023-05-15T17:05:37.704Z,99468.38
2023-05-15T17:08:06.616Z,99470.78
2023-05-15T17:10:35.337Z,99469.69
2023-05-15T17:13:04.683Z,99470.78
2023-05-15T17:15:34.933Z,99481.75
2023-05-15T17:18:03.380Z,99471.47
2023-05-15T17:20:32.168Z,99473.69
2023-05-15T17:23:00.652Z,99476.38
2023-05-15T17:25:29.827Z,99473.69
2023-05-15T17:27:58.287Z,99475.06
2023-05-15T17:30:26.922Z,99493.28
2023-05-15T17:32:56.957Z,99479.13
2023-05-15T17:35:25.970Z,99481.81
2023-05-15T17:37:54.603Z,99495.88
2023-05-15T17:40:26.037Z,99493.47
2023-05-15T17:42:54.364Z,99508.09
2023-05-15T17:45:24.070Z,99519.13
2023-05-15T17:47:52.735Z,99515.16
2023-05-15T17:50:22.551Z,99519.25
2023-05-15T17:52:50.976Z,99533.25
2023-05-15T17:55:19.577Z,99524.69
2023-05-15T18:00:55.763Z,99533.44
2023-05-15T18:03:24.383Z,99538.28
2023-05-15T18:05:54.231Z,99540.19
2023-05-15T18:08:22.712Z,99544.28
2023-05-15T18:10:51.125Z,99542.94
2023-05-15T18:13:29.463Z,99539.47
2023-05-15T18:15:57.971Z,99545.69
2023-05-15T18:18:26.335Z,99541.44
2023-05-15T18:20:56.076Z,99539.31
2023-05-15T18:23:24.535Z,99565.16
2023-05-15T18:25:53.019Z,99551.53
2023-05-15T18:28:21.461Z,99552.94
2023-05-15T18:30:49.830Z,99549.22
2023-05-15T18:33:18.381Z,99561.34
2023-05-15T18:35:46.738Z,99561.94
2023-05-15T18:38:16.474Z,99567.88
2023-05-15T18:40:47.612Z,99567.97
2023-05-15T18:43:16.195Z,99580.09
2023-05-15T18:45:44.592Z,99577.19
2023-05-15T18:48:13.043Z,99573.50
2023-05-15T18:50:41.690Z,99557.19
2023-05-15T18:53:10.236Z,99559.94
2023-05-15T18:55:40.027Z,99576.09
2023-05-15T18:58:08.793Z,99580.94
2023-05-15T19:00:39.110Z,99588.78
2023-05-15T19:03:09.766Z,99595.81
2023-05-15T19:05:38.507Z,99598.84
2023-05-15T19:08:07.196Z,99605.56
2023-05-15T19:10:35.590Z,99593.31
2023-05-15T19:13:05.658Z,99606.28
2023-05-15T19:15:34.088Z,99593.16
2023-05-15T19:18:02.591Z,99605.34
2023-05-15T19:20:31.181Z,99604.00
2023-05-15T19:22:59.740Z,99612.94
2023-05-15T19:25:28.224Z,99610.28
2023-05-15T19:27:56.885Z,99605.78
2023-05-15T19:30:26.977Z,99632.94
2023-05-15T19:32:55.472Z,99639.16
2023-05-15T19:35:23.891Z,99631.69
2023-05-15T19:37:52.242Z,99613.00
2023-05-15T19:40:20.735Z,99628.03
2023-05-15T19:42:49.193Z,99635.31
2023-05-15T19:45:17.676Z,99634.25
2023-05-15T19:47:47.486Z,99637.78
2023-05-15T19:50:16.160Z,99645.59
2023-05-15T19:52:45.514Z,99638.38
2023-05-15T19:55:14.238Z,99640.34
2023-05-15T19:57:59.349Z,99643.03
2023-05-15T20:00:28.115Z,99654.84
2023-05-15T20:02:58.177Z,99658.38
2023-05-15T20:05:26.711Z,99652.47
2023-05-15T20:07:55.044Z,99662.44
2023-05-15T20:10:24.176Z,99665.38
2023-05-15T20:12:54.329Z,99661.69
2023-05-15T20:15:23.055Z,99670.25
2023-05-15T20:17:51.470Z,99657.44
2023-05-15T20:20:21.543Z,99640.34
2023-05-15T20:22:50.049Z,99658.84
2023-05-15T20:25:55.441Z,99659.69
2023-05-15T20:32:10.532Z,99654.41
2023-05-15T20:34:41.269Z,99648.25
2023-05-15T20:37:12.760Z,99673.69
2023-05-15T20:39:41.437Z,99669.41
2023-05-15T20:42:09.950Z,99680.13
2023-05-15T20:44:39.433Z,99678.50
2023-05-15T20:47:07.991Z,99674.53
2023-05-15T20:49:36.391Z,99691.63
2023-05-15T20:52:04.915Z,99674.28
2023-05-15T20:54:34.729Z,99674.84
2023-05-15T20:57:03.085Z,99678.59
2023-05-15T20:59:31.483Z,99676.47
2023-05-15T21:01:59.912Z,99669.78
2023-05-15T21:04:28.289Z,99664.97
2023-05-15T21:06:59.991Z,99671.41
2023-05-15T21:09:28.416Z,99670.09
2023-05-15T21:11:58.206Z,99676.53
2023-05-15T21:14:27.345Z,99664.50
2023-05-15T21:16:55.762Z,99661.31
2023-05-15T21:19:24.117Z,99679.50
2023-05-15T21:21:52.620Z,99677.91
2023-05-15T21:24:21.432Z,99672.00
2023-05-15T21:26:49.841Z,99674.19
2023-05-15T21:29:19.600Z,99687.00
2023-05-15T21:31:48.027Z,99665.13
2023-05-15T21:34:16.495Z,99680.63
2023-05-15T21:36:44.820Z,99681.41
2023-05-15T21:39:13.150Z,99677.44
2023-05-15T21:44:27.266Z,99680.66
2023-05-15T21:46:56.796Z,99685.47
2023-05-15T21:49:25.665Z,99680.66
2023-05-15T21:51:54.070Z,99693.78
2023-05-15T21:54:22.443Z,99680.16
2023-05-15T21:56:51.768Z,99682.81
2023-05-15T21:59:20.245Z,99699.13
2023-05-15T22:01:50.218Z,99691.63
2023-05-15T22:04:18.716Z,99696.97
2023-05-15T22:06:47.073Z,99697.28
2023-05-15T22:09:15.561Z,99691.38
2023-05-15T22:11:43.887Z,99695.13
2023-05-15T22:14:12.532Z,99694.63
2023-05-15T22:16:40.916Z,99686.59
2023-05-15T22:19:21.429Z,99694.38
2023-05-15T22:21:59.013Z,99696.78
2023-05-15T22:24:27.463Z,99696.53
2023-05-15T22:26:55.907Z,99690.09
2023-05-15T22:29:24.458Z,99698.41
2023-05-15T22:31:52.936Z,99689.84
2023-05-15T22:34:22.777Z,99695.47
2023-05-15T22:36:51.441Z,99705.63
2023-05-15T22:39:19.952Z,99703.22
2023-05-15T22:41:48.482Z,99711.22
2023-05-15T22:44:19.258Z,99697.59
2023-05-15T22:46:48.094Z,99706.66
2023-05-15T22:49:25.363Z,99708.53
2023-05-15T22:51:56.802Z,99708.03
2023-05-15T22:54:25.240Z,99706.41
2023-05-15T22:56:54.982Z,99712.03
2023-05-15T22:59:23.745Z,99698.41
2023-05-15T23:01:52.289Z,99707.50
2023-05-15T23:04:20.981Z,99705.09
2023-05-15T23:06:49.502Z,99698.41
2023-05-15T23:09:19.239Z,99698.19
2023-05-15T23:11:47.638Z,99704.31
2023-05-15T23:14:17.566Z,99701.91
2023-05-15T23:16:46.041Z,99710.19
2023-05-15T23:19:14.455Z,99702.44
2023-05-15T23:21:42.980Z,99709.94
2023-05-15T23:24:11.364Z,99720.06
2023-05-15T23:26:41.154Z,99708.88
2023-05-15T23:29:09.606Z,99711.00
2023-05-15T23:31:38.815Z,99711.28
2023-05-15T23:34:07.785Z,99707.28
2023-05-15T23:36:36.206Z,99709.94
2023-05-15T23:39:05.366Z,99699.00
2023-05-15T23:41:33.746Z,99704.34
2023-05-15T23:44:03.648Z,99713.69
2023-05-15T23:46:32.060Z,99717.72
2023-05-15T23:49:00.733Z,99726.50
2023-05-15T23:51:29.053Z,99713.69
2023-05-15T23:53:57.418Z,99707.28
2023-05-15T23:56:26.012Z,99716.09
2023-05-15T23:58:54.540Z,99719.84
